createdAt,value
2023-01-02T00:01:08.099Z,1.60
2023-01-02T00:03:35.304Z,1.60
2023-01-02T00:06:04.424Z,1.50
2023-01-02T00:08:31.645Z,1.50
2023-01-02T00:10:58.898Z,1.50
2023-01-02T00:13:26.218Z,1.50
2023-01-02T00:15:53.479Z,1.40
2023-01-02T00:18:20.525Z,1.40
2023-01-02T00:20:47.673Z,1.40
2023-01-02T00:23:14.712Z,1.50
2023-01-02T00:25:42.105Z,1.40
2023-01-02T00:28:09.215Z,1.40
2023-01-02T00:30:39.034Z,1.50
2023-01-02T00:33:07.013Z,1.50
2023-01-02T00:35:37.124Z,1.50
2023-01-02T00:38:04.651Z,1.50
2023-01-02T00:40:31.713Z,1.40
2023-01-02T00:42:59.076Z,1.40
2023-01-02T00:45:26.201Z,1.40
2023-01-02T00:47:53.435Z,1.30
2023-01-02T00:50:20.812Z,1.30
2023-01-02T00:52:47.993Z,1.20
2023-01-02T00:55:15.576Z,1.30
2023-01-02T00:57:42.852Z,1.40
2023-01-02T01:00:10.379Z,1.40
2023-01-02T01:02:37.562Z,1.40
2023-01-02T01:05:05.319Z,1.40
2023-01-02T01:07:32.289Z,1.40
2023-01-02T01:09:59.305Z,1.50
2023-01-02T01:12:26.410Z,1.50
2023-01-02T01:14:53.523Z,1.50
2023-01-02T01:17:20.531Z,1.40
2023-01-02T01:19:47.644Z,1.40
2023-01-02T01:22:14.732Z,1.40
2023-01-02T01:24:41.775Z,1.30
2023-01-02T01:27:09.308Z,1.20
2023-01-02T01:29:36.426Z,1.20
2023-01-02T01:32:03.585Z,1.10
2023-01-02T01:34:30.688Z,1.10
2023-01-02T01:36:57.743Z,1.10
2023-01-02T01:39:24.851Z,1.10
2023-01-02T01:41:52.291Z,1.10
2023-01-02T01:44:48.690Z,1.10
2023-01-02T01:47:18.173Z,1.00
2023-01-02T01:49:46.710Z,1.00
2023-01-02T01:52:19.196Z,1.00
2023-01-02T01:54:53.427Z,0.90
2023-01-02T01:57:28.976Z,0.90
2023-01-02T01:59:58.275Z,1.00
2023-01-02T02:02:27.623Z,0.90
2023-01-02T02:04:57.926Z,0.90
2023-01-02T02:07:25.113Z,0.90
2023-01-02T02:09:57.745Z,0.80
2023-01-02T02:12:28.215Z,0.80
2023-01-02T02:14:55.544Z,0.90
2023-01-02T02:18:02.491Z,0.90
2023-01-02T02:20:55.141Z,0.90
2023-01-02T02:23:37.970Z,0.80
2023-01-02T02:26:19.783Z,0.80
2023-01-02T02:29:17.219Z,0.80
2023-01-02T02:31:51.173Z,0.80
2023-01-02T02:34:34.116Z,0.80
2023-01-02T02:37:06.089Z,0.80
2023-01-02T02:39:49.115Z,0.80
2023-01-02T02:42:24.159Z,0.70
2023-01-02T02:45:01.206Z,0.80
2023-01-02T02:47:39.031Z,0.80
2023-01-02T02:50:12.020Z,0.70
2023-01-02T02:52:45.630Z,0.70
2023-01-02T02:55:27.025Z,0.70
2023-01-02T02:57:55.654Z,0.70
2023-01-02T03:00:24.340Z,0.60
2023-01-02T03:02:51.678Z,0.60
2023-01-02T03:05:28.127Z,0.60
2023-01-02T03:08:01.818Z,0.50
2023-01-02T03:10:35.138Z,0.50
2023-01-02T03:13:12.972Z,0.40
2023-01-02T03:15:45.570Z,0.40
2023-01-02T03:18:38.124Z,0.40
2023-01-02T03:21:11.004Z,0.40
2023-01-02T03:23:48.655Z,0.40
2023-01-02T03:26:21.754Z,0.40
2023-01-02T03:28:56.515Z,0.50
2023-01-02T03:31:26.073Z,0.60
2023-01-02T03:33:59.888Z,0.60
2023-01-02T03:36:29.823Z,0.60
2023-01-02T03:39:18.398Z,0.60
2023-01-02T03:41:51.606Z,0.60
2023-01-02T03:44:21.753Z,0.60
2023-01-02T03:46:59.652Z,0.60
2023-01-02T03:49:33.193Z,0.60
2023-01-02T03:52:00.674Z,0.50
2023-01-02T03:54:29.920Z,0.50
2023-01-02T03:57:05.134Z,0.50
2023-01-02T03:59:36.620Z,0.40
2023-01-02T04:02:09.016Z,0.40
2023-01-02T04:04:59.595Z,0.40
2023-01-02T04:07:36.746Z,0.40
2023-01-02T04:10:06.637Z,0.30
2023-01-02T04:12:36.863Z,0.40
2023-01-02T04:15:07.591Z,0.30
2023-01-02T04:17:56.286Z,0.30
2023-01-02T04:20:30.318Z,0.40
2023-01-02T04:23:03.139Z,0.30
2023-01-02T04:25:37.372Z,0.30
2023-01-02T04:28:18.091Z,0.30
2023-01-02T04:30:54.171Z,0.30
2023-01-02T04:33:24.348Z,0.30
2023-01-02T04:35:51.512Z,0.30
2023-01-02T04:38:20.063Z,0.40
2023-01-02T04:40:47.662Z,0.30
2023-01-02T04:43:21.630Z,0.30
2023-01-02T04:45:49.397Z,0.20
2023-01-02T04:48:17.446Z,0.20
2023-01-02T04:50:45.726Z,0.20
2023-01-02T04:53:12.823Z,0.20
2023-01-02T04:55:40.201Z,0.10
2023-01-02T04:58:08.067Z,0.10
2023-01-02T05:00:35.355Z,0.10
2023-01-02T05:03:03.710Z,0.00
2023-01-02T05:05:31.394Z,0.00
2023-01-02T05:07:59.790Z,0.00
2023-01-02T05:10:27.089Z,0.00
2023-01-02T05:12:54.137Z,0.00
2023-01-02T05:15:21.844Z,0.00
2023-01-02T05:17:49.000Z,0.00
2023-01-02T05:20:16.291Z,0.00
2023-01-02T05:23:04.193Z,0.10
2023-01-02T05:25:34.538Z,0.10
2023-01-02T05:28:03.105Z,0.10
2023-01-02T05:30:30.725Z,0.10
2023-01-02T05:32:57.753Z,0.10
2023-01-02T05:35:31.843Z,0.10
2023-01-02T05:37:59.871Z,0.10
2023-01-02T05:40:27.019Z,0.10
2023-01-02T05:42:54.083Z,0.00
2023-01-02T05:45:21.137Z,0.00
2023-01-02T05:47:48.191Z,-0.10
2023-01-02T05:50:15.544Z,0.00
2023-01-02T05:52:45.840Z,-0.10
2023-01-02T05:55:13.396Z,-0.10
2023-01-02T05:57:42.365Z,-0.10
2023-01-02T06:00:10.360Z,-0.10
2023-01-02T06:02:47.067Z,-0.10
2023-01-02T06:05:15.041Z,-0.10
2023-01-02T06:07:42.334Z,-0.10
2023-01-02T06:10:09.706Z,-0.10
2023-01-02T06:12:37.549Z,-0.10
2023-01-02T06:15:05.034Z,-0.10
2023-01-02T06:17:32.095Z,-0.20
2023-01-02T06:19:59.202Z,-0.20
2023-01-02T06:22:26.445Z,-0.20
2023-01-02T06:24:53.544Z,-0.10
2023-01-02T06:27:20.757Z,-0.10
2023-01-02T06:29:47.814Z,-0.10
2023-01-02T06:32:15.049Z,-0.10
2023-01-02T06:34:42.057Z,-0.10
2023-01-02T06:37:10.297Z,-0.10
2023-01-02T06:39:37.595Z,-0.10
2023-01-02T06:42:05.827Z,-0.10
2023-01-02T06:44:32.884Z,-0.10
2023-01-02T06:47:00.024Z,0.00
2023-01-02T06:49:27.194Z,0.00
2023-01-02T06:51:54.223Z,0.00
2023-01-02T06:54:21.298Z,0.10
2023-01-02T06:56:48.364Z,0.10
2023-01-02T06:59:15.642Z,0.20
2023-01-02T07:01:53.445Z,0.30
2023-01-02T07:04:21.237Z,0.50
2023-01-02T07:06:57.821Z,0.70
2023-01-02T07:09:26.089Z,1.20
2023-01-02T07:11:54.048Z,1.70
2023-01-02T07:14:22.225Z,2.50
2023-01-02T07:16:50.063Z,3.30
2023-01-02T07:19:18.707Z,4.20
2023-01-02T07:21:47.246Z,5.10
2023-01-02T07:24:16.078Z,5.50
2023-01-02T07:26:44.024Z,6.10
2023-01-02T07:29:13.518Z,6.30
2023-01-02T07:31:41.402Z,6.70
2023-01-02T07:34:09.330Z,7.10
2023-01-02T07:36:36.718Z,7.30
2023-01-02T07:39:04.335Z,7.70
2023-01-02T07:41:34.011Z,7.80
2023-01-02T07:44:13.054Z,8.00
2023-01-02T07:46:40.847Z,8.40
2023-01-02T07:49:08.958Z,8.70
2023-01-02T07:51:37.259Z,8.50
2023-01-02T07:54:05.151Z,8.30
2023-01-02T07:56:33.255Z,8.60
2023-01-02T07:59:00.772Z,9.00
2023-01-02T08:01:29.001Z,9.10
2023-01-02T08:03:57.725Z,8.60
2023-01-02T08:06:25.182Z,8.10
2023-01-02T08:09:01.930Z,8.10
2023-01-02T08:11:29.594Z,8.00
2023-01-02T08:13:58.182Z,7.60
2023-01-02T08:16:26.924Z,7.60
2023-01-02T08:18:55.908Z,7.50
2023-01-02T08:21:25.768Z,7.30
2023-01-02T08:23:55.472Z,7.40
2023-01-02T08:26:26.583Z,7.40
2023-01-02T08:28:54.822Z,7.50
2023-01-02T08:31:23.114Z,7.70
2023-01-02T08:33:53.010Z,8.10
2023-01-02T08:36:20.832Z,8.60
2023-01-02T08:38:49.680Z,9.30
2023-01-02T08:41:32.723Z,9.50
2023-01-02T08:44:00.960Z,9.40
2023-01-02T08:46:29.378Z,9.10
2023-01-02T08:49:01.193Z,8.70
2023-01-02T08:51:29.015Z,8.90
2023-01-02T08:53:56.829Z,8.70
2023-01-02T08:56:28.933Z,9.00
2023-01-02T08:59:00.811Z,9.10
2023-01-02T09:01:31.688Z,9.20
2023-01-02T09:04:06.226Z,9.40
2023-01-02T09:06:39.777Z,9.30
2023-01-02T09:09:12.056Z,9.50
2023-01-02T09:11:46.738Z,9.40
2023-01-02T09:14:15.696Z,9.50
2023-01-02T09:16:43.878Z,9.70
2023-01-02T09:19:11.870Z,9.90
2023-01-02T09:21:40.155Z,10.10
2023-01-02T09:24:09.176Z,10.30
2023-01-02T09:26:38.561Z,10.00
2023-01-02T09:29:06.825Z,9.90
2023-01-02T09:31:35.774Z,9.30
2023-01-02T09:37:11.607Z,8.60
2023-01-02T09:39:40.162Z,8.10
2023-01-02T09:42:15.717Z,8.00
2023-01-02T09:44:49.704Z,7.90
2023-01-02T09:47:22.785Z,7.90
2023-01-02T09:49:54.695Z,7.90
2023-01-02T09:52:27.909Z,7.90
2023-01-02T09:54:56.007Z,7.90
2023-01-02T09:57:42.010Z,8.10
2023-01-02T10:00:21.760Z,8.30
2023-01-02T10:03:07.561Z,8.40
2023-01-02T10:06:17.179Z,8.50
2023-01-02T10:09:16.776Z,8.60
2023-01-02T10:11:46.884Z,8.50
2023-01-02T10:14:37.434Z,8.50
2023-01-02T10:17:13.845Z,8.50
2023-01-02T10:19:45.368Z,8.70
2023-01-02T10:22:20.843Z,9.10
2023-01-02T10:24:56.357Z,9.60
2023-01-02T10:27:32.815Z,9.80
2023-01-02T10:30:08.462Z,9.80
2023-01-02T10:32:38.937Z,10.00
2023-01-02T10:35:07.434Z,10.20
2023-01-02T10:37:39.029Z,10.40
2023-01-02T10:40:38.735Z,10.50
2023-01-02T10:43:06.646Z,10.60
2023-01-02T10:45:40.595Z,10.80
2023-01-02T10:48:12.072Z,10.90
2023-01-02T10:50:48.926Z,11.10
2023-01-02T10:53:33.443Z,11.10
2023-01-02T10:56:05.420Z,11.30
2023-01-02T10:58:35.749Z,11.50
2023-01-02T11:01:15.208Z,11.70
2023-01-02T11:03:44.345Z,11.90
2023-01-02T11:06:39.818Z,12.10
2023-01-02T11:09:23.510Z,12.40
2023-01-02T11:12:02.416Z,12.40
2023-01-02T11:14:35.386Z,12.40
2023-01-02T11:20:28.699Z,12.50
2023-01-02T11:23:03.300Z,12.50
2023-01-02T11:25:41.897Z,12.80
2023-01-02T11:31:32.624Z,12.80
2023-01-02T11:34:21.915Z,12.90
2023-01-02T11:37:04.155Z,12.80
2023-01-02T11:39:34.106Z,13.00
2023-01-02T11:42:34.097Z,13.10
2023-01-02T11:45:18.942Z,13.20
2023-01-02T11:47:51.289Z,13.40
2023-01-02T11:50:28.958Z,13.30
2023-01-02T11:53:23.850Z,13.50
2023-01-02T11:56:17.782Z,13.50
2023-01-02T11:58:57.488Z,13.50
2023-01-02T12:01:38.544Z,13.50
2023-01-02T12:04:06.805Z,13.60
2023-01-02T12:06:43.590Z,13.70
2023-01-02T12:09:20.093Z,13.90
2023-01-02T12:12:19.040Z,14.00
2023-01-02T12:15:06.976Z,13.90
2023-01-02T12:17:41.349Z,13.80
2023-01-02T12:20:17.146Z,13.80
2023-01-02T12:22:46.095Z,13.80
2023-01-02T12:25:48.508Z,13.70
2023-01-02T12:28:37.604Z,13.60
2023-01-02T12:31:25.322Z,13.40
2023-01-02T12:34:26.935Z,13.40
2023-01-02T12:37:09.470Z,13.60
2023-01-02T12:39:45.217Z,13.80
2023-01-02T12:42:52.549Z,13.80
2023-01-02T12:45:26.576Z,13.90
2023-01-02T12:48:10.336Z,14.20
2023-01-02T12:50:49.883Z,14.30
2023-01-02T12:53:45.037Z,14.20
2023-01-02T12:57:04.727Z,14.30
2023-01-02T12:59:36.452Z,14.50
2023-01-02T13:02:29.776Z,14.60
2023-01-02T13:05:05.272Z,14.70
2023-01-02T13:07:40.665Z,14.70
2023-01-02T13:10:17.000Z,14.70
2023-01-02T13:12:45.753Z,14.60
2023-01-02T13:15:13.538Z,14.70
2023-01-02T13:17:44.469Z,14.40
2023-01-02T13:20:18.732Z,14.30
2023-01-02T13:23:12.247Z,14.20
2023-01-02T13:25:46.837Z,14.00
2023-01-02T13:28:15.839Z,14.10
2023-01-02T13:31:44.321Z,14.00
2023-01-02T13:33:55.652Z,14.10
2023-01-02T13:36:27.034Z,14.20
2023-01-02T13:39:00.705Z,14.30
2023-01-02T13:41:31.369Z,14.40
2023-01-02T13:44:01.840Z,14.50
2023-01-02T13:47:02.855Z,14.50
2023-01-02T13:49:28.084Z,14.30
2023-01-02T13:52:00.269Z,14.30
2023-01-02T13:54:37.192Z,14.30
2023-01-02T13:57:31.120Z,14.00
2023-01-02T14:00:01.766Z,13.60
2023-01-02T14:02:39.308Z,13.40
2023-01-02T14:05:49.858Z,13.20
2023-01-02T14:08:25.066Z,13.10
2023-01-02T14:10:57.019Z,13.00
2023-01-02T14:13:30.990Z,13.00
2023-01-02T14:16:02.095Z,12.90
2023-01-02T14:18:31.594Z,12.80
2023-01-02T14:20:59.583Z,12.70
2023-01-02T14:23:41.071Z,12.50
2023-01-02T14:26:25.578Z,12.40
2023-01-02T14:28:53.820Z,12.10
2023-01-02T14:31:33.273Z,12.00
2023-01-02T14:34:01.234Z,11.80
2023-01-02T14:36:45.455Z,11.70
2023-01-02T14:39:26.811Z,11.60
2023-01-02T14:42:14.079Z,11.50
2023-01-02T14:44:55.017Z,11.40
2023-01-02T14:47:43.344Z,11.20
2023-01-02T14:50:14.917Z,11.10
2023-01-02T14:52:47.585Z,11.00
2023-01-02T14:55:19.020Z,10.90
2023-01-02T14:57:50.140Z,10.70
2023-01-02T15:00:23.110Z,10.50
2023-01-02T15:02:56.966Z,10.40
2023-01-02T15:05:36.568Z,10.30
2023-01-02T15:08:08.775Z,10.10
2023-01-02T15:10:55.643Z,10.00
2023-01-02T15:13:26.762Z,9.90
2023-01-02T15:15:58.736Z,9.80
2023-01-02T15:18:31.083Z,9.60
2023-01-02T15:21:16.523Z,9.50
2023-01-02T15:23:46.356Z,9.30
2023-01-02T15:26:34.928Z,9.20
2023-01-02T15:29:06.323Z,9.00
2023-01-02T15:31:34.300Z,8.90
2023-01-02T15:34:02.203Z,8.90
2023-01-02T15:36:33.121Z,8.80
2023-01-02T15:39:25.929Z,8.60
2023-01-02T15:41:57.818Z,8.40
2023-01-02T15:44:51.136Z,8.40
2023-01-02T15:47:27.614Z,8.20
2023-01-02T15:49:56.832Z,8.10
2023-01-02T15:52:30.411Z,8.00
2023-01-02T15:54:58.685Z,8.00
2023-01-02T15:57:28.671Z,8.00
2023-01-02T15:59:56.395Z,7.90
2023-01-02T16:02:44.619Z,7.90
2023-01-02T16:05:18.572Z,7.70
2023-01-02T16:07:51.856Z,7.70
2023-01-02T16:10:22.935Z,7.60
2023-01-02T16:12:53.115Z,7.80
2023-01-02T16:15:25.170Z,7.70
2023-01-02T16:17:54.590Z,7.60
2023-01-02T16:20:23.653Z,7.50
2023-01-02T16:22:56.531Z,7.40
2023-01-02T16:25:30.470Z,7.30
2023-01-02T16:28:36.294Z,7.20
2023-01-02T16:31:12.171Z,7.00
2023-01-02T16:33:42.030Z,7.10
2023-01-02T16:36:13.291Z,7.10
2023-01-02T16:39:01.661Z,7.10
2023-01-02T16:41:35.259Z,7.00
2023-01-02T16:44:04.278Z,6.80
2023-01-02T16:46:31.790Z,6.70
2023-01-02T16:49:04.875Z,6.60
2023-01-02T16:51:32.782Z,6.50
2023-01-02T16:54:00.494Z,6.50
2023-01-02T16:56:27.741Z,6.40
2023-01-02T16:58:55.129Z,6.30
2023-01-02T17:01:23.959Z,6.20
2023-01-02T17:03:51.870Z,6.40
2023-01-02T17:06:20.366Z,6.60
2023-01-02T17:08:48.371Z,6.60
2023-01-02T17:11:18.749Z,6.60
2023-01-02T17:13:46.250Z,6.60
2023-01-02T17:16:13.516Z,6.50
2023-01-02T17:18:41.172Z,6.40
2023-01-02T17:21:09.103Z,6.30
2023-01-02T17:23:37.521Z,6.30
2023-01-02T17:26:06.234Z,6.30
2023-01-02T17:28:33.902Z,6.30
2023-01-02T17:31:01.747Z,6.40
2023-01-02T17:33:29.180Z,6.40
2023-01-02T17:35:58.581Z,6.30
2023-01-02T17:38:26.135Z,6.20
2023-01-02T17:40:58.297Z,6.20
2023-01-02T17:43:26.564Z,6.10
2023-01-02T17:45:53.996Z,6.00
2023-01-02T17:48:31.035Z,6.00
2023-01-02T17:50:58.390Z,5.90
2023-01-02T17:53:25.719Z,5.80
2023-01-02T17:56:21.009Z,5.80
2023-01-02T17:58:42.229Z,5.80
2023-01-02T18:01:15.119Z,5.80
2023-01-02T18:03:42.571Z,5.70
2023-01-02T18:06:10.588Z,5.70
2023-01-02T18:08:39.240Z,5.60
2023-01-02T18:11:10.047Z,5.50
2023-01-02T18:13:43.704Z,5.40
2023-01-02T18:16:14.982Z,5.40
2023-01-02T18:18:43.902Z,5.40
2023-01-02T18:21:13.492Z,5.50
2023-01-02T18:23:41.624Z,5.40
2023-01-02T18:26:14.017Z,5.40
2023-01-02T18:28:45.730Z,5.40
2023-01-02T18:31:15.832Z,5.40
2023-01-02T18:33:44.052Z,5.40
2023-01-02T18:36:22.643Z,5.30
2023-01-02T18:38:52.305Z,5.30
2023-01-02T18:41:31.512Z,5.30
2023-01-02T18:44:14.958Z,5.20
2023-01-02T18:47:03.072Z,5.00
2023-01-02T18:49:37.695Z,5.00
2023-01-02T18:52:12.767Z,5.00
2023-01-02T18:54:45.053Z,5.00
2023-01-02T18:57:18.231Z,5.00
2023-01-02T18:59:48.346Z,5.00
2023-01-02T19:02:39.496Z,5.00
2023-01-02T19:05:23.866Z,5.00
2023-01-02T19:07:53.432Z,5.00
2023-01-02T19:10:27.887Z,4.90
2023-01-02T19:13:07.181Z,4.80
2023-01-02T19:15:48.739Z,4.80
2023-01-02T19:18:16.360Z,4.70
2023-01-02T19:20:54.624Z,4.70
2023-01-02T19:23:25.109Z,4.60
2023-01-02T19:25:54.541Z,4.60
2023-01-02T19:28:26.384Z,4.60
2023-01-02T19:30:53.663Z,4.60
2023-01-02T19:33:30.066Z,4.60
2023-01-02T19:36:00.824Z,4.60
2023-01-02T19:38:31.003Z,4.50
2023-01-02T19:40:59.161Z,4.50
2023-01-02T19:43:27.341Z,4.40
2023-01-02T19:45:55.600Z,4.40
2023-01-02T19:48:23.025Z,4.40
2023-01-02T19:50:50.739Z,4.40
2023-01-02T19:53:18.040Z,4.30
2023-01-02T19:55:45.455Z,4.30
2023-01-02T19:58:12.798Z,4.20
2023-01-02T20:00:40.261Z,4.20
2023-01-02T20:03:07.962Z,4.10
2023-01-02T20:05:36.861Z,4.10
2023-01-02T20:08:04.359Z,4.00
2023-01-02T20:10:31.564Z,4.00
2023-01-02T20:12:59.061Z,3.90
2023-01-02T20:15:28.317Z,3.90
2023-01-02T20:17:55.929Z,3.90
2023-01-02T20:20:25.567Z,3.80
2023-01-02T20:22:52.947Z,3.80
2023-01-02T20:25:24.445Z,3.80
2023-01-02T20:27:53.338Z,3.80
2023-01-02T20:30:24.488Z,3.80
2023-01-02T20:32:53.521Z,3.70
2023-01-02T20:35:20.973Z,3.70
2023-01-02T20:37:48.988Z,3.80
2023-01-02T20:40:16.716Z,3.90
2023-01-02T20:42:44.052Z,3.90
2023-01-02T20:45:12.583Z,3.90
2023-01-02T20:47:39.780Z,3.90
2023-01-02T20:50:07.565Z,3.90
2023-01-02T20:52:35.340Z,3.90
2023-01-02T20:55:02.789Z,3.80
2023-01-02T20:57:29.873Z,3.80
2023-01-02T20:59:57.163Z,3.70
2023-01-02T21:02:24.775Z,3.60
2023-01-02T21:04:52.745Z,3.60
2023-01-02T21:07:21.676Z,3.50
2023-01-02T21:09:49.067Z,3.30
2023-01-02T21:12:36.499Z,3.20
2023-01-02T21:15:03.940Z,3.20
2023-01-02T21:17:31.551Z,3.10
2023-01-02T21:19:59.007Z,3.10
2023-01-02T21:22:27.447Z,3.00
2023-01-02T21:24:54.903Z,3.00
2023-01-02T21:27:23.069Z,3.00
2023-01-02T21:29:50.464Z,3.00
2023-01-02T21:32:17.935Z,2.90
2023-01-02T21:34:50.537Z,3.00
2023-01-02T21:37:18.671Z,3.00
2023-01-02T21:39:48.307Z,3.00
2023-01-02T21:42:16.056Z,2.90
2023-01-02T21:44:44.178Z,2.90
2023-01-02T21:47:11.801Z,2.90
2023-01-02T21:49:39.550Z,2.90
2023-01-02T21:52:06.856Z,2.90
2023-01-02T21:54:34.282Z,2.90
2023-01-02T21:57:01.635Z,2.90
2023-01-02T21:59:29.374Z,2.90
2023-01-02T22:01:57.750Z,2.80
2023-01-02T22:04:26.181Z,2.70
2023-01-02T22:09:40.856Z,2.60
2023-01-02T22:12:08.570Z,2.50
2023-01-02T22:14:38.636Z,2.60
2023-01-02T22:17:09.215Z,2.60
2023-01-02T22:19:37.267Z,2.60
2023-01-02T22:22:05.459Z,2.60
2023-01-02T22:24:36.601Z,2.50
2023-01-02T22:27:10.035Z,2.60
2023-01-02T22:30:18.661Z,2.60
2023-01-02T22:32:25.030Z,2.70
2023-01-02T22:34:53.147Z,2.70
2023-01-02T22:37:22.910Z,2.70
2023-01-02T22:39:51.638Z,2.70
2023-01-02T22:43:05.191Z,2.70
2023-01-02T22:45:40.862Z,2.60
2023-01-02T22:48:16.286Z,2.50
2023-01-02T22:50:46.016Z,2.40
2023-01-02T22:53:34.846Z,2.40
2023-01-02T22:56:14.201Z,2.40
2023-01-02T22:58:42.085Z,2.40
2023-01-02T23:01:23.259Z,2.40
2023-01-02T23:03:51.089Z,2.50
2023-01-02T23:06:22.287Z,2.50
2023-01-02T23:08:51.095Z,2.60
2023-01-02T23:11:19.654Z,2.70
2023-01-02T23:13:52.993Z,2.70
2023-01-02T23:16:43.707Z,2.70
2023-01-02T23:19:14.701Z,2.70
2023-01-02T23:21:45.235Z,2.60
2023-01-02T23:24:14.309Z,2.60
2023-01-02T23:26:44.575Z,2.50
2023-01-02T23:29:12.602Z,2.40
2023-01-02T23:31:42.828Z,2.40
2023-01-02T23:34:11.794Z,2.20
2023-01-02T23:36:40.313Z,2.10
2023-01-02T23:39:11.904Z,2.10
2023-01-02T23:41:41.040Z,2.00
2023-01-02T23:44:09.583Z,1.90
2023-01-02T23:46:37.133Z,1.90
2023-01-02T23:49:05.195Z,1.90
2023-01-02T23:51:32.343Z,1.80
2023-01-02T23:54:00.996Z,1.80
2023-01-02T23:56:30.773Z,1.80
2023-01-02T23:58:59.465Z,1.90
